createdAt,value
2019-04-06T00:02:26.696Z,59.70
2019-04-06T00:04:53.309Z,54.60
2019-04-06T00:07:19.642Z,54.80
2019-04-06T00:09:46.031Z,55.40
2019-04-06T00:12:12.314Z,58.17
2019-04-06T00:14:38.767Z,55.12
2019-04-06T00:17:05.294Z,57.40
2019-04-06T00:19:31.589Z,55.85
2019-04-06T00:21:57.958Z,57.73
2019-04-06T00:24:24.352Z,59.58
2019-04-06T00:26:50.633Z,56.63
2019-04-06T00:29:16.970Z,57.48
2019-04-06T00:31:48.188Z,59.08
2019-04-06T00:34:14.476Z,56.15
2019-04-06T00:36:40.920Z,58.13
2019-04-06T00:39:07.555Z,53.40
2019-04-06T00:41:33.947Z,58.85
2019-04-06T00:44:00.348Z,55.40
2019-04-06T00:46:26.705Z,55.15
2019-04-06T00:48:53.128Z,56.83
2019-04-06T00:51:19.616Z,57.23
2019-04-06T00:53:46.055Z,58.65
2019-04-06T00:56:12.456Z,56.98
2019-04-06T00:58:38.965Z,56.23
2019-04-06T01:01:05.395Z,56.10
2019-04-06T01:03:31.783Z,54.13
2019-04-06T01:05:58.115Z,56.73
2019-04-06T01:08:24.502Z,56.37
2019-04-06T01:10:50.825Z,55.85
2019-04-06T01:13:17.138Z,58.50
2019-04-06T01:15:43.400Z,58.23
2019-04-06T01:18:09.689Z,57.45
2019-04-06T01:20:36.047Z,52.53
2019-04-06T01:23:02.549Z,51.73
2019-04-06T01:25:28.955Z,52.70
2019-04-06T01:27:55.317Z,53.70
2019-04-06T01:30:21.796Z,54.50
2019-04-06T01:32:48.174Z,54.67
2019-04-06T01:35:14.600Z,51.25
2019-04-06T01:37:42.839Z,54.73
2019-04-06T01:40:09.499Z,47.88
2019-04-06T01:42:35.872Z,51.70
2019-04-06T01:45:03.689Z,48.68
2019-04-06T01:47:30.203Z,51.88
2019-04-06T01:49:56.462Z,50.15
2019-04-06T01:52:22.867Z,52.67
2019-04-06T01:54:49.191Z,49.98
2019-04-06T01:57:15.503Z,52.90
2019-04-06T01:59:41.811Z,50.17
2019-04-06T02:02:15.801Z,47.50
2019-04-06T02:04:42.095Z,55.12
2019-04-06T02:07:08.824Z,53.98
2019-04-06T02:09:35.257Z,53.65
2019-04-06T02:12:01.531Z,55.15
2019-04-06T02:14:27.798Z,50.43
2019-04-06T02:16:54.122Z,54.15
2019-04-06T02:19:20.394Z,53.58
2019-04-06T02:21:46.715Z,53.45
2019-04-06T02:24:12.999Z,50.65
2019-04-06T02:26:39.687Z,50.48
2019-04-06T02:29:06.039Z,52.85
2019-04-06T02:31:34.260Z,51.02
2019-04-06T02:34:05.289Z,51.18
2019-04-06T02:36:33.478Z,50.95
2019-04-06T02:39:01.871Z,53.55
2019-04-06T02:41:39.039Z,52.75
2019-04-06T02:44:05.442Z,54.23
2019-04-06T02:46:31.889Z,56.00
2019-04-06T02:48:58.525Z,51.73
2019-04-06T02:51:25.195Z,48.68
2019-04-06T02:53:51.428Z,55.00
2019-04-06T02:56:17.731Z,52.53
2019-04-06T02:58:44.254Z,55.80
2019-04-06T03:01:10.534Z,54.85
2019-04-06T03:03:37.159Z,55.17
2019-04-06T03:06:03.633Z,54.00
2019-04-06T03:08:30.138Z,54.48
2019-04-06T03:10:56.987Z,54.13
2019-04-06T03:13:23.422Z,52.08
2019-04-06T03:15:49.858Z,52.95
2019-04-06T03:18:16.251Z,53.52
2019-04-06T03:20:42.640Z,47.45
2019-04-06T03:23:09.105Z,48.50
2019-04-06T03:25:35.608Z,52.03
2019-04-06T03:28:02.022Z,47.70
2019-04-06T03:30:28.475Z,48.87
2019-04-06T03:32:54.812Z,50.38
2019-04-06T03:35:21.151Z,49.33
2019-04-06T03:37:47.665Z,49.42
2019-04-06T03:40:14.160Z,50.03
2019-04-06T03:42:40.460Z,51.05
2019-04-06T03:45:06.980Z,54.42
2019-04-06T03:47:33.308Z,51.28
2019-04-06T03:49:59.613Z,51.02
2019-04-06T03:52:26.022Z,48.25
2019-04-06T03:54:52.301Z,48.20
2019-04-06T03:57:18.723Z,47.13
2019-04-06T03:59:45.106Z,52.53
2019-04-06T04:02:11.482Z,52.35
2019-04-06T04:04:37.788Z,54.35
2019-04-06T04:07:04.149Z,51.18
2019-04-06T04:09:30.487Z,49.75
2019-04-06T04:11:57.258Z,49.23
2019-04-06T04:14:23.525Z,48.30
2019-04-06T04:16:49.882Z,55.55
2019-04-06T04:19:16.261Z,49.42
2019-04-06T04:21:42.673Z,52.35
2019-04-06T04:24:09.441Z,51.98
2019-04-06T04:26:35.689Z,50.52
2019-04-06T04:29:01.912Z,52.55
2019-04-06T04:31:28.344Z,49.45
2019-04-06T04:33:54.678Z,52.90
2019-04-06T04:36:20.954Z,49.18
2019-04-06T04:38:47.244Z,50.95
2019-04-06T04:41:13.593Z,53.33
2019-04-06T04:43:40.046Z,51.85
2019-04-06T04:46:06.332Z,53.08
2019-04-06T04:48:32.601Z,48.90
2019-04-06T04:50:58.873Z,48.52
2019-04-06T04:53:29.388Z,50.78
2019-04-06T04:55:57.829Z,54.55
2019-04-06T04:58:24.158Z,52.85
2019-04-06T05:00:50.421Z,50.50
2019-04-06T05:03:16.900Z,49.35
2019-04-06T05:05:43.154Z,48.83
2019-04-06T05:08:09.427Z,50.43
2019-04-06T05:10:35.693Z,51.23
2019-04-06T05:13:01.957Z,54.55
2019-04-06T05:15:44.148Z,57.25
2019-04-06T05:18:10.420Z,56.10
2019-04-06T05:20:36.693Z,53.42
2019-04-06T05:23:03.177Z,51.68
2019-04-06T05:25:29.456Z,55.50
2019-04-06T05:27:55.815Z,51.73
2019-04-06T05:30:22.266Z,53.20
2019-04-06T05:32:48.661Z,53.33
2019-04-06T05:35:15.015Z,53.35
2019-04-06T05:37:41.397Z,56.28
2019-04-06T05:40:07.954Z,58.63
2019-04-06T05:42:34.175Z,55.17
2019-04-06T05:45:00.423Z,54.93
2019-04-06T05:47:26.797Z,56.25
2019-04-06T05:49:53.094Z,61.73
2019-04-06T05:52:19.360Z,59.05
2019-04-06T05:54:45.677Z,55.52
2019-04-06T05:57:12.059Z,64.87
2019-04-06T05:59:40.946Z,58.33
2019-04-06T06:02:08.013Z,57.67
2019-04-06T06:04:34.973Z,58.23
2019-04-06T06:07:01.425Z,65.83
2019-04-06T06:09:27.918Z,69.17
2019-04-06T06:11:55.596Z,66.07
2019-04-06T06:14:22.262Z,69.90
2019-04-06T06:16:48.574Z,69.58
2019-04-06T06:19:17.886Z,71.05
2019-04-06T06:21:44.278Z,73.07
2019-04-06T06:24:10.706Z,72.82
2019-04-06T06:26:37.149Z,73.67
2019-04-06T06:29:03.684Z,77.58
2019-04-06T06:31:30.047Z,81.35
2019-04-06T06:33:56.467Z,78.07
2019-04-06T06:36:23.093Z,78.20
2019-04-06T06:38:49.652Z,86.02
2019-04-06T06:41:15.853Z,77.60
2019-04-06T06:43:42.189Z,75.65
2019-04-06T06:46:08.519Z,79.58
2019-04-06T06:48:35.020Z,85.10
2019-04-06T06:51:01.281Z,79.90
2019-04-06T06:53:27.585Z,82.25
2019-04-06T06:55:54.393Z,80.55
2019-04-06T06:58:25.516Z,81.12
2019-04-06T07:03:41.837Z,84.90
2019-04-06T07:06:08.215Z,77.80
2019-04-06T07:08:34.966Z,77.30
2019-04-06T07:11:01.707Z,83.40
2019-04-06T07:13:28.324Z,80.38
2019-04-06T07:15:54.569Z,76.77
2019-04-06T07:18:20.969Z,85.67
2019-04-06T07:20:47.249Z,79.87
2019-04-06T07:23:13.583Z,80.80
2019-04-06T07:25:40.088Z,78.52
2019-04-06T07:28:06.726Z,87.25
2019-04-06T07:30:34.133Z,84.87
2019-04-06T07:33:00.408Z,80.72
2019-04-06T07:35:27.027Z,81.78
2019-04-06T07:37:53.490Z,82.15
2019-04-06T07:40:19.883Z,78.00
2019-04-06T07:42:46.268Z,78.02
2019-04-06T07:45:12.799Z,80.05
2019-04-06T07:47:39.197Z,83.50
2019-04-06T07:50:06.803Z,79.17
2019-04-06T07:52:33.351Z,80.67
2019-04-06T07:55:00.052Z,76.28
2019-04-06T07:57:26.816Z,78.47
2019-04-06T07:59:53.446Z,78.47
2019-04-06T08:02:19.700Z,76.50
2019-04-06T08:04:46.123Z,77.78
2019-04-06T08:07:12.642Z,73.10
2019-04-06T08:09:39.217Z,75.57
2019-04-06T08:12:05.711Z,72.05
2019-04-06T08:14:32.008Z,73.55
2019-04-06T08:16:58.311Z,72.22
2019-04-06T08:19:24.855Z,74.03
2019-04-06T08:21:51.379Z,67.40
2019-04-06T08:24:17.885Z,68.72
2019-04-06T08:26:46.097Z,71.82
2019-04-06T08:29:12.367Z,69.10
2019-04-06T08:31:38.678Z,68.35
2019-04-06T08:34:05.079Z,71.60
2019-04-06T08:36:31.854Z,69.42
2019-04-06T08:39:02.648Z,67.87
2019-04-06T08:41:29.820Z,68.65
2019-04-06T08:43:56.448Z,70.80
2019-04-06T08:46:23.043Z,70.30
2019-04-06T08:48:49.362Z,67.40
2019-04-06T08:51:15.705Z,63.87
2019-04-06T08:53:42.049Z,67.08
2019-04-06T08:56:08.655Z,65.52
2019-04-06T08:58:35.260Z,66.77
2019-04-06T09:01:02.248Z,67.97
2019-04-06T09:03:28.541Z,67.20
2019-04-06T09:05:54.954Z,63.60
2019-04-06T09:08:21.326Z,65.87
2019-04-06T09:10:47.724Z,64.97
2019-04-06T09:13:14.276Z,66.20
2019-04-06T09:15:40.650Z,64.40
2019-04-06T09:18:06.848Z,65.32
2019-04-06T09:20:33.342Z,63.65
2019-04-06T09:22:59.842Z,63.40
2019-04-06T09:25:26.109Z,59.58
2019-04-06T09:27:52.417Z,61.70
2019-04-06T09:30:18.688Z,61.88
2019-04-06T09:32:45.204Z,62.33
2019-04-06T09:35:11.730Z,62.88
2019-04-06T09:37:38.266Z,61.05
2019-04-06T09:40:05.342Z,61.42
2019-04-06T09:42:31.914Z,58.90
2019-04-06T09:45:03.768Z,60.92
2019-04-06T09:47:37.755Z,59.33
2019-04-06T09:50:10.073Z,59.70
2019-04-06T09:52:41.258Z,58.50
2019-04-06T09:55:24.284Z,59.88
2019-04-06T09:58:08.958Z,59.65
2019-04-06T10:00:43.220Z,56.50
2019-04-06T10:03:28.988Z,56.80
2019-04-06T10:06:03.022Z,58.15
2019-04-06T10:08:46.533Z,55.90
2019-04-06T10:11:31.379Z,56.23
2019-04-06T10:14:17.823Z,56.20
2019-04-06T10:16:48.726Z,56.25
2019-04-06T10:19:22.646Z,54.55
2019-04-06T10:21:53.667Z,55.60
2019-04-06T10:24:22.042Z,55.03
2019-04-06T10:27:05.082Z,53.80
2019-04-06T10:29:49.258Z,49.70
2019-04-06T10:32:15.342Z,51.33
2019-04-06T10:34:49.549Z,52.38
2019-04-06T10:37:34.064Z,51.02
2019-04-06T10:40:08.628Z,51.45
2019-04-06T10:42:53.465Z,51.88
2019-04-06T10:45:22.410Z,48.70
2019-04-06T10:48:00.761Z,49.73
2019-04-06T10:50:26.720Z,44.35
2019-04-06T10:52:54.820Z,47.27
2019-04-06T10:55:24.284Z,46.15
2019-04-06T10:58:08.823Z,46.53
2019-04-06T11:00:42.913Z,44.38
2019-04-06T11:03:20.544Z,43.58
2019-04-06T11:05:57.839Z,44.48
2019-04-06T11:08:38.471Z,44.45
2019-04-06T11:11:23.346Z,42.40
2019-04-06T11:13:51.672Z,40.30
2019-04-06T11:16:25.630Z,40.85
2019-04-06T11:18:53.827Z,41.55
2019-04-06T11:21:22.008Z,43.35
2019-04-06T11:23:50.388Z,40.45
2019-04-06T11:26:24.581Z,39.25
2019-04-06T11:29:09.491Z,38.83
2019-04-06T11:31:54.602Z,38.98
2019-04-06T11:34:25.651Z,41.10
2019-04-06T11:37:11.775Z,37.67
2019-04-06T11:39:43.085Z,33.10
2019-04-06T11:42:17.282Z,34.40
2019-04-06T11:45:03.288Z,36.88
2019-04-06T11:47:37.275Z,38.28
2019-04-06T11:50:24.283Z,36.68
2019-04-06T11:52:58.243Z,36.60
2019-04-06T11:55:32.416Z,36.05
2019-04-06T11:58:17.054Z,36.28
2019-04-06T12:01:01.641Z,37.10
2019-04-06T12:03:29.966Z,33.88
2019-04-06T12:06:16.033Z,31.17
2019-04-06T12:08:53.703Z,31.12
2019-04-06T12:11:22.041Z,32.03
2019-04-06T12:13:50.322Z,30.77
2019-04-06T12:16:18.790Z,31.07
2019-04-06T12:18:46.988Z,32.60
2019-04-06T12:21:18.088Z,30.82
2019-04-06T12:23:55.317Z,31.97
2019-04-06T12:26:26.218Z,31.52
2019-04-06T12:28:54.390Z,30.62
2019-04-06T12:31:34.944Z,30.35
2019-04-06T12:34:13.405Z,30.90
2019-04-06T12:36:59.692Z,31.27
2019-04-06T12:39:36.632Z,31.37
2019-04-06T12:42:17.196Z,31.30
2019-04-06T12:45:02.055Z,30.88
2019-04-06T12:47:49.623Z,31.73
2019-04-06T12:50:17.872Z,30.27
2019-04-06T12:52:46.126Z,34.35
2019-04-06T12:55:31.115Z,32.17
2019-04-06T12:58:08.322Z,33.92
2019-04-06T13:00:50.719Z,33.00
2019-04-06T13:03:15.516Z,30.55
2019-04-06T13:06:14.165Z,32.28
2019-04-06T13:08:45.377Z,31.20
2019-04-06T13:11:22.659Z,30.32
2019-04-06T13:14:05.702Z,30.05
2019-04-06T13:16:36.770Z,27.98
2019-04-06T13:19:21.731Z,28.05
2019-04-06T13:21:55.997Z,27.98
2019-04-06T13:24:30.385Z,30.80
2019-04-06T13:27:04.622Z,28.52
2019-04-06T13:29:32.793Z,27.00
2019-04-06T13:32:01.251Z,25.62
2019-04-06T13:34:29.957Z,26.80
2019-04-06T13:37:04.009Z,27.58
2019-04-06T13:39:32.174Z,25.90
2019-04-06T13:42:09.279Z,25.12
2019-04-06T13:44:40.273Z,29.90
2019-04-06T13:47:25.078Z,28.07
2019-04-06T13:50:02.263Z,24.75
2019-04-06T13:52:47.292Z,26.60
2019-04-06T13:55:18.689Z,26.07
2019-04-06T13:57:50.759Z,26.68
2019-04-06T14:00:22.042Z,25.72
2019-04-06T14:02:53.572Z,25.25
2019-04-06T14:05:24.822Z,25.50
2019-04-06T14:07:58.918Z,23.90
2019-04-06T14:10:36.229Z,23.92
2019-04-06T14:13:16.880Z,22.67
2019-04-06T14:15:54.494Z,23.05
2019-04-06T14:18:34.510Z,22.32
2019-04-06T14:21:05.551Z,23.65
2019-04-06T14:23:45.783Z,23.15
2019-04-06T14:26:16.156Z,21.97
2019-04-06T14:28:49.482Z,26.42
2019-04-06T14:31:34.288Z,23.15
2019-04-06T14:34:19.201Z,21.20
2019-04-06T14:36:59.791Z,22.37
2019-04-06T14:39:44.318Z,21.15
2019-04-06T14:42:31.243Z,20.17
2019-04-06T14:44:59.550Z,21.45
2019-04-06T14:47:31.860Z,20.80
2019-04-06T14:50:15.225Z,19.95
2019-04-06T14:52:46.188Z,20.57
2019-04-06T14:55:14.826Z,18.60
2019-04-06T14:58:00.110Z,19.40
2019-04-06T15:00:28.649Z,19.35
2019-04-06T15:03:08.946Z,19.10
2019-04-06T15:05:42.974Z,20.43
2019-04-06T15:08:17.448Z,18.30
2019-04-06T15:10:57.773Z,17.07
2019-04-06T15:13:28.729Z,16.97
2019-04-06T15:16:00.222Z,17.55
2019-04-06T15:18:37.244Z,19.12
2019-04-06T15:21:22.110Z,17.40
2019-04-06T15:23:50.436Z,18.62
2019-04-06T15:26:30.481Z,16.65
2019-04-06T15:29:04.477Z,17.07
2019-04-06T15:31:51.642Z,19.50
2019-04-06T15:34:35.249Z,22.75
2019-04-06T15:37:12.176Z,25.20
2019-04-06T15:39:40.499Z,27.58
2019-04-06T15:42:08.893Z,29.10
2019-04-06T15:44:53.749Z,30.77
2019-04-06T15:47:38.443Z,30.68
2019-04-06T15:50:16.042Z,28.47
2019-04-06T15:52:44.943Z,30.02
2019-04-06T15:55:15.856Z,37.70
2019-04-06T15:57:50.376Z,31.93
2019-04-06T16:00:18.911Z,30.05
2019-04-06T16:02:53.399Z,27.70
2019-04-06T16:05:27.662Z,30.45
2019-04-06T16:08:07.848Z,31.33
2019-04-06T16:10:42.032Z,31.45
2019-04-06T16:13:26.881Z,31.95
2019-04-06T16:15:55.143Z,30.30
2019-04-06T16:18:35.272Z,32.28
2019-04-06T16:21:06.437Z,31.57
2019-04-06T16:24:01.752Z,31.30
2019-04-06T16:26:27.211Z,33.40
2019-04-06T16:29:02.303Z,30.32
2019-04-06T16:31:30.751Z,31.48
2019-04-06T16:34:06.166Z,33.30
2019-04-06T16:36:51.316Z,30.45
2019-04-06T16:39:37.330Z,31.10
2019-04-06T16:42:23.553Z,30.00
2019-04-06T16:44:54.519Z,32.58
2019-04-06T16:47:22.770Z,31.93
2019-04-06T16:50:03.696Z,30.40
2019-04-06T16:52:49.804Z,32.95
2019-04-06T16:55:19.711Z,32.35
2019-04-06T16:58:04.517Z,33.58
2019-04-06T17:00:33.136Z,31.12
2019-04-06T17:03:02.437Z,30.43
2019-04-06T17:05:36.615Z,31.37
2019-04-06T17:08:21.371Z,30.30
2019-04-06T17:10:53.267Z,34.43
2019-04-06T17:13:29.299Z,31.77
2019-04-06T17:16:03.463Z,29.92
2019-04-06T17:18:37.671Z,29.87
2019-04-06T17:21:09.339Z,31.00
2019-04-06T17:23:40.833Z,31.05
2019-04-06T17:26:21.299Z,31.10
2019-04-06T17:28:55.464Z,32.00
2019-04-06T17:31:26.559Z,29.98
2019-04-06T17:34:11.115Z,30.60
2019-04-06T17:36:57.181Z,32.30
2019-04-06T17:39:37.918Z,33.45
2019-04-06T17:42:06.537Z,30.60
2019-04-06T17:44:37.785Z,32.90
2019-04-06T17:47:23.083Z,33.25
2019-04-06T17:49:51.607Z,31.12
2019-04-06T17:52:26.687Z,31.30
2019-04-06T17:55:11.287Z,30.17
2019-04-06T17:57:48.450Z,33.55
2019-04-06T18:00:25.844Z,31.73
2019-04-06T18:03:06.641Z,35.60
2019-04-06T18:05:37.634Z,33.73
2019-04-06T18:08:06.027Z,31.93
2019-04-06T18:10:51.263Z,32.35
2019-04-06T18:13:22.140Z,29.98
2019-04-06T18:15:48.521Z,31.30
2019-04-06T18:18:15.495Z,32.63
2019-04-06T18:20:41.882Z,32.17
2019-04-06T18:23:08.614Z,32.30
2019-04-06T18:25:34.980Z,31.60
2019-04-06T18:28:02.788Z,31.70
2019-04-06T18:30:30.538Z,32.98
2019-04-06T18:33:02.209Z,34.05
2019-04-06T18:35:27.327Z,32.50
2019-04-06T18:37:55.731Z,32.08
2019-04-06T18:40:24.059Z,28.42
2019-04-06T18:42:50.928Z,31.97
2019-04-06T18:45:20.020Z,34.73
2019-04-06T18:47:46.398Z,36.60
2019-04-06T18:50:13.585Z,34.30
2019-04-06T18:52:40.065Z,35.68
2019-04-06T18:55:06.743Z,33.60
2019-04-06T18:57:33.139Z,33.05
2019-04-06T18:59:59.538Z,32.55
2019-04-06T19:02:25.888Z,32.88
2019-04-06T19:04:52.237Z,35.15
2019-04-06T19:07:19.120Z,36.13
2019-04-06T19:09:45.497Z,35.00
2019-04-06T19:12:11.886Z,34.75
2019-04-06T19:14:38.379Z,33.50
2019-04-06T19:17:04.868Z,34.18
2019-04-06T19:19:31.167Z,36.10
2019-04-06T19:21:57.843Z,33.60
2019-04-06T19:24:24.889Z,35.15
2019-04-06T19:26:51.467Z,38.50
2019-04-06T19:29:18.285Z,36.63
2019-04-06T19:31:44.682Z,34.45
2019-04-06T19:34:11.407Z,36.90
2019-04-06T19:36:37.953Z,35.33
2019-04-06T19:39:08.530Z,36.50
2019-04-06T19:41:35.305Z,34.73
2019-04-06T19:44:03.646Z,37.98
2019-04-06T19:46:29.964Z,38.25
2019-04-06T19:48:56.322Z,35.50
2019-04-06T19:51:22.750Z,38.08
2019-04-06T19:53:51.878Z,33.28
2019-04-06T19:56:18.331Z,37.85
2019-04-06T19:58:46.423Z,38.80
2019-04-06T20:01:14.758Z,37.10
2019-04-06T20:03:41.281Z,37.80
2019-04-06T20:06:09.547Z,39.65
2019-04-06T20:08:36.273Z,37.78
2019-04-06T20:13:35.546Z,39.95
2019-04-06T20:16:02.109Z,37.13
2019-04-06T20:18:28.945Z,37.63
2019-04-06T20:20:55.425Z,36.25
2019-04-06T20:23:22.071Z,35.85
2019-04-06T20:25:48.976Z,36.63
2019-04-06T20:28:15.911Z,39.30
2019-04-06T20:30:48.812Z,37.13
2019-04-06T20:33:15.254Z,33.90
2019-04-06T20:35:44.003Z,40.63
2019-04-06T20:38:11.601Z,38.60
2019-04-06T20:40:37.937Z,37.00
2019-04-06T20:43:05.019Z,35.95
2019-04-06T20:45:31.640Z,41.33
2019-04-06T20:47:58.519Z,37.00
2019-04-06T20:50:24.797Z,37.00
2019-04-06T20:52:51.210Z,37.48
2019-04-06T20:55:17.942Z,38.42
2019-04-06T20:57:44.153Z,39.27
2019-04-06T21:00:10.937Z,41.28
2019-04-06T21:02:37.658Z,37.83
2019-04-06T21:05:05.629Z,39.98
2019-04-06T21:07:32.396Z,41.33
2019-04-06T21:09:58.691Z,39.33
2019-04-06T21:12:24.979Z,39.65
2019-04-06T21:14:52.914Z,38.30
2019-04-06T21:17:19.718Z,42.17
2019-04-06T21:19:47.076Z,44.88
2019-04-06T21:22:13.483Z,45.30
2019-04-06T21:24:39.699Z,46.37
2019-04-06T21:27:06.076Z,47.13
2019-04-06T21:29:33.629Z,45.15
2019-04-06T21:32:00.111Z,41.37
2019-04-06T21:34:27.128Z,43.13
2019-04-06T21:36:53.734Z,40.58
2019-04-06T21:39:20.171Z,39.58
2019-04-06T21:41:46.546Z,42.90
2019-04-06T21:44:12.900Z,42.45
2019-04-06T21:46:39.327Z,39.63
2019-04-06T21:49:06.135Z,43.28
2019-04-06T21:51:32.540Z,46.13
2019-04-06T21:53:58.880Z,45.45
2019-04-06T21:56:26.128Z,43.23
2019-04-06T21:58:52.581Z,42.43
2019-04-06T22:01:19.609Z,40.12
2019-04-06T22:03:48.429Z,43.33
2019-04-06T22:06:14.759Z,42.80
2019-04-06T22:08:41.761Z,42.45
2019-04-06T22:11:08.009Z,46.05
2019-04-06T22:13:34.263Z,42.15
2019-04-06T22:16:03.224Z,44.53
2019-04-06T22:18:29.667Z,45.83
2019-04-06T22:20:55.964Z,44.18
2019-04-06T22:23:25.231Z,41.58
2019-04-06T22:25:52.697Z,40.83
2019-04-06T22:28:20.811Z,42.70
2019-04-06T22:30:50.867Z,45.12
2019-04-06T22:33:17.456Z,43.78
2019-04-06T22:35:44.212Z,42.88
2019-04-06T22:38:10.930Z,43.35
2019-04-06T22:40:39.569Z,38.95
2019-04-06T22:43:06.627Z,45.20
2019-04-06T22:45:33.697Z,45.23
2019-04-06T22:47:59.949Z,44.53
2019-04-06T22:50:26.842Z,42.43
2019-04-06T22:52:53.045Z,40.98
2019-04-06T22:55:19.408Z,47.05
2019-04-06T22:57:45.729Z,45.78
2019-04-06T23:00:16.732Z,45.40
2019-04-06T23:02:50.353Z,44.20
2019-04-06T23:05:34.999Z,42.48
2019-04-06T23:08:01.428Z,43.35
2019-04-06T23:10:27.882Z,43.85
2019-04-06T23:12:54.344Z,43.40
2019-04-06T23:15:21.015Z,42.15
2019-04-06T23:17:47.729Z,41.28
2019-04-06T23:20:14.041Z,48.15
2019-04-06T23:22:41.210Z,47.23
2019-04-06T23:25:08.384Z,43.50
2019-04-06T23:27:35.344Z,48.38
2019-04-06T23:30:04.575Z,47.65
2019-04-06T23:32:30.859Z,45.20
2019-04-06T23:35:01.559Z,44.58
2019-04-06T23:37:25.325Z,44.08
2019-04-06T23:39:51.497Z,45.00
2019-04-06T23:42:17.726Z,44.10
2019-04-06T23:44:44.127Z,44.53
2019-04-06T23:47:10.387Z,43.75
2019-04-06T23:49:36.749Z,43.10
2019-04-06T23:52:03.737Z,46.73
2019-04-06T23:54:30.137Z,41.40
2019-04-06T23:56:56.815Z,48.08
2019-04-06T23:59:23.350Z,44.95
